sensor_id;sensor_type;location;lat;lon;timestamp;temperature;humidity
7461;DHT22;6757;52.258;12.840;2023-04-25T00:01:58;7.60;99.90
7461;DHT22;6757;52.258;12.840;2023-04-25T00:04:26;7.60;99.90
7461;DHT22;6757;52.258;12.840;2023-04-25T00:06:55;7.60;99.90
7461;DHT22;6757;52.258;12.840;2023-04-25T00:09:22;7.60;99.90
7461;DHT22;6757;52.258;12.840;2023-04-25T00:11:49;7.60;99.90
7461;DHT22;6757;52.258;12.840;2023-04-25T00:14:16;7.60;99.90
7461;DHT22;6757;52.258;12.840;2023-04-25T00:16:43;7.60;99.90
7461;DHT22;6757;52.258;12.840;2023-04-25T00:19:11;7.60;99.90
7461;DHT22;6757;52.258;12.840;2023-04-25T00:21:39;7.60;99.90
7461;DHT22;6757;52.258;12.840;2023-04-25T00:24:07;7.60;99.90
7461;DHT22;6757;52.258;12.840;2023-04-25T00:26:34;7.60;99.90
7461;DHT22;6757;52.258;12.840;2023-04-25T00:29:01;7.50;99.90
7461;DHT22;6757;52.258;12.840;2023-04-25T00:31:28;7.50;99.90
7461;DHT22;6757;52.258;12.840;2023-04-25T00:33:55;7.50;99.90
7461;DHT22;6757;52.258;12.840;2023-04-25T00:36:23;7.50;99.90
7461;DHT22;6757;52.258;12.840;2023-04-25T00:38:51;7.50;99.90
7461;DHT22;6757;52.258;12.840;2023-04-25T00:41:19;7.60;99.90
7461;DHT22;6757;52.258;12.840;2023-04-25T00:43:48;7.50;99.90
7461;DHT22;6757;52.258;12.840;2023-04-25T00:46:15;7.50;99.90
7461;DHT22;6757;52.258;12.840;2023-04-25T00:48:42;7.50;99.90
7461;DHT22;6757;52.258;12.840;2023-04-25T00:51:09;7.50;99.90
7461;DHT22;6757;52.258;12.840;2023-04-25T00:53:39;7.60;99.90
7461;DHT22;6757;52.258;12.840;2023-04-25T00:56:06;7.50;99.90
7461;DHT22;6757;52.258;12.840;2023-04-25T00:58:33;7.50;99.90
7461;DHT22;6757;52.258;12.840;2023-04-25T01:01:01;7.50;99.90
7461;DHT22;6757;52.258;12.840;2023-04-25T01:03:30;7.50;99.90
7461;DHT22;6757;52.258;12.840;2023-04-25T01:06:01;7.50;99.90
7461;DHT22;6757;52.258;12.840;2023-04-25T01:08:28;7.50;99.90
7461;DHT22;6757;52.258;12.840;2023-04-25T01:10:57;7.50;99.90
7461;DHT22;6757;52.258;12.840;2023-04-25T01:13:24;7.50;99.90
7461;DHT22;6757;52.258;12.840;2023-04-25T01:15:51;7.50;99.90
7461;DHT22;6757;52.258;12.840;2023-04-25T01:18:18;7.50;99.90
7461;DHT22;6757;52.258;12.840;2023-04-25T01:20:47;7.50;99.90
7461;DHT22;6757;52.258;12.840;2023-04-25T01:23:20;7.60;99.90
7461;DHT22;6757;52.258;12.840;2023-04-25T01:25:48;7.50;99.90
7461;DHT22;6757;52.258;12.840;2023-04-25T01:28:16;7.50;99.90
7461;DHT22;6757;52.258;12.840;2023-04-25T01:30:43;7.50;99.90
7461;DHT22;6757;52.258;12.840;2023-04-25T01:33:10;7.50;99.90
7461;DHT22;6757;52.258;12.840;2023-04-25T01:35:37;7.50;99.90
7461;DHT22;6757;52.258;12.840;2023-04-25T01:38:05;7.50;99.90
7461;DHT22;6757;52.258;12.840;2023-04-25T01:40:34;7.40;99.90
7461;DHT22;6757;52.258;12.840;2023-04-25T01:43:03;7.40;99.90
7461;DHT22;6757;52.258;12.840;2023-04-25T01:45:31;7.40;99.90
7461;DHT22;6757;52.258;12.840;2023-04-25T01:47:58;7.40;99.90
7461;DHT22;6757;52.258;12.840;2023-04-25T01:50:25;7.40;99.90
7461;DHT22;6757;52.258;12.840;2023-04-25T01:52:53;7.30;99.90
7461;DHT22;6757;52.258;12.840;2023-04-25T01:55:20;7.40;99.90
7461;DHT22;6757;52.258;12.840;2023-04-25T01:57:48;7.30;99.90
7461;DHT22;6757;52.258;12.840;2023-04-25T02:00:16;7.30;99.90
7461;DHT22;6757;52.258;12.840;2023-04-25T02:02:43;7.30;99.90
7461;DHT22;6757;52.258;12.840;2023-04-25T02:05:10;8.50;99.90
7461;DHT22;6757;52.258;12.840;2023-04-25T02:07:37;7.30;99.90
7461;DHT22;6757;52.258;12.840;2023-04-25T02:10:05;7.30;99.90
7461;DHT22;6757;52.258;12.840;2023-04-25T02:12:32;7.30;99.90
7461;DHT22;6757;52.258;12.840;2023-04-25T02:15:00;7.30;99.90
7461;DHT22;6757;52.258;12.840;2023-04-25T02:17:27;7.30;99.90
7461;DHT22;6757;52.258;12.840;2023-04-25T02:19:54;7.30;99.90
7461;DHT22;6757;52.258;12.840;2023-04-25T02:22:21;7.30;99.90
7461;DHT22;6757;52.258;12.840;2023-04-25T02:24:48;7.40;99.90
7461;DHT22;6757;52.258;12.840;2023-04-25T02:27:15;7.40;99.90
7461;DHT22;6757;52.258;12.840;2023-04-25T02:29:42;7.40;99.90
7461;DHT22;6757;52.258;12.840;2023-04-25T02:32:10;7.40;99.90
7461;DHT22;6757;52.258;12.840;2023-04-25T02:34:37;7.40;99.90
7461;DHT22;6757;52.258;12.840;2023-04-25T02:37:04;7.40;99.90
7461;DHT22;6757;52.258;12.840;2023-04-25T02:39:31;7.40;99.90
7461;DHT22;6757;52.258;12.840;2023-04-25T02:41:58;7.40;99.90
7461;DHT22;6757;52.258;12.840;2023-04-25T02:44:26;7.40;99.90
7461;DHT22;6757;52.258;12.840;2023-04-25T02:46:53;7.40;99.90
7461;DHT22;6757;52.258;12.840;2023-04-25T02:49:21;7.40;99.90
7461;DHT22;6757;52.258;12.840;2023-04-25T02:51:48;7.40;99.90
7461;DHT22;6757;52.258;12.840;2023-04-25T02:54:15;7.40;99.90
7461;DHT22;6757;52.258;12.840;2023-04-25T02:56:42;7.50;99.90
7461;DHT22;6757;52.258;12.840;2023-04-25T02:59:09;7.50;99.90
7461;DHT22;6757;52.258;12.840;2023-04-25T03:01:36;7.50;99.90
7461;DHT22;6757;52.258;12.840;2023-04-25T03:04:03;7.50;99.90
7461;DHT22;6757;52.258;12.840;2023-04-25T03:06:31;7.50;99.90
7461;DHT22;6757;52.258;12.840;2023-04-25T03:08:58;7.40;99.90
7461;DHT22;6757;52.258;12.840;2023-04-25T03:11:25;7.50;99.90
7461;DHT22;6757;52.258;12.840;2023-04-25T03:13:52;7.40;99.90
7461;DHT22;6757;52.258;12.840;2023-04-25T03:16:19;7.40;99.90
7461;DHT22;6757;52.258;12.840;2023-04-25T03:18:46;7.40;99.90
7461;DHT22;6757;52.258;12.840;2023-04-25T03:21:15;7.40;99.90
7461;DHT22;6757;52.258;12.840;2023-04-25T03:23:43;7.40;99.90
7461;DHT22;6757;52.258;12.840;2023-04-25T03:26:10;7.40;99.90
7461;DHT22;6757;52.258;12.840;2023-04-25T03:28:37;7.40;99.90
7461;DHT22;6757;52.258;12.840;2023-04-25T03:31:05;7.40;99.90
7461;DHT22;6757;52.258;12.840;2023-04-25T03:33:32;7.50;99.90
7461;DHT22;6757;52.258;12.840;2023-04-25T03:35:59;7.40;99.90
7461;DHT22;6757;52.258;12.840;2023-04-25T03:38:26;7.40;99.90
7461;DHT22;6757;52.258;12.840;2023-04-25T03:40:55;7.40;99.90
7461;DHT22;6757;52.258;12.840;2023-04-25T03:43:22;7.30;99.90
7461;DHT22;6757;52.258;12.840;2023-04-25T03:45:49;7.40;99.90
7461;DHT22;6757;52.258;12.840;2023-04-25T03:48:17;7.30;99.90
7461;DHT22;6757;52.258;12.840;2023-04-25T03:50:46;7.30;99.90
7461;DHT22;6757;52.258;12.840;2023-04-25T03:53:13;7.30;99.90
7461;DHT22;6757;52.258;12.840;2023-04-25T03:55:41;7.30;99.90
7461;DHT22;6757;52.258;12.840;2023-04-25T03:58:09;8.00;99.90
7461;DHT22;6757;52.258;12.840;2023-04-25T04:00:37;7.30;99.90
7461;DHT22;6757;52.258;12.840;2023-04-25T04:03:04;7.30;99.90
7461;DHT22;6757;52.258;12.840;2023-04-25T04:05:31;7.30;99.90
7461;DHT22;6757;52.258;12.840;2023-04-25T04:07:58;7.30;99.90
7461;DHT22;6757;52.258;12.840;2023-04-25T04:10:26;7.90;99.90
7461;DHT22;6757;52.258;12.840;2023-04-25T04:12:53;7.20;99.90
7461;DHT22;6757;52.258;12.840;2023-04-25T04:15:22;7.20;99.90
7461;DHT22;6757;52.258;12.840;2023-04-25T04:17:49;7.20;99.90
7461;DHT22;6757;52.258;12.840;2023-04-25T04:20:16;7.20;99.90
7461;DHT22;6757;52.258;12.840;2023-04-25T04:22:42;7.20;99.90
7461;DHT22;6757;52.258;12.840;2023-04-25T04:25:09;7.20;99.90
7461;DHT22;6757;52.258;12.840;2023-04-25T04:27:37;7.30;99.90
7461;DHT22;6757;52.258;12.840;2023-04-25T04:30:05;7.30;99.90
7461;DHT22;6757;52.258;12.840;2023-04-25T04:32:35;7.30;99.90
7461;DHT22;6757;52.258;12.840;2023-04-25T04:35:03;7.20;99.90
7461;DHT22;6757;52.258;12.840;2023-04-25T04:37:32;7.30;99.90
7461;DHT22;6757;52.258;12.840;2023-04-25T04:39:59;7.30;99.90
7461;DHT22;6757;52.258;12.840;2023-04-25T04:42:30;7.30;99.90
7461;DHT22;6757;52.258;12.840;2023-04-25T04:44:57;7.20;99.90
7461;DHT22;6757;52.258;12.840;2023-04-25T04:47:27;7.30;99.90
7461;DHT22;6757;52.258;12.840;2023-04-25T04:49:57;7.30;99.90
7461;DHT22;6757;52.258;12.840;2023-04-25T04:52:24;7.30;99.90
7461;DHT22;6757;52.258;12.840;2023-04-25T04:54:51;7.30;99.90
7461;DHT22;6757;52.258;12.840;2023-04-25T04:57:18;7.30;99.90
7461;DHT22;6757;52.258;12.840;2023-04-25T04:59:45;7.30;99.90
7461;DHT22;6757;52.258;12.840;2023-04-25T05:02:12;7.30;99.90
7461;DHT22;6757;52.258;12.840;2023-04-25T05:04:39;7.30;99.90
7461;DHT22;6757;52.258;12.840;2023-04-25T05:07:07;7.30;99.90
7461;DHT22;6757;52.258;12.840;2023-04-25T05:09:34;7.30;99.90
7461;DHT22;6757;52.258;12.840;2023-04-25T05:12:01;7.40;99.90
7461;DHT22;6757;52.258;12.840;2023-04-25T05:14:28;7.30;99.90
7461;DHT22;6757;52.258;12.840;2023-04-25T05:16:55;7.30;99.90
7461;DHT22;6757;52.258;12.840;2023-04-25T05:19:22;7.40;99.90
7461;DHT22;6757;52.258;12.840;2023-04-25T05:21:50;7.50;99.90
7461;DHT22;6757;52.258;12.840;2023-04-25T05:24:18;7.50;99.90
7461;DHT22;6757;52.258;12.840;2023-04-25T05:26:45;7.50;99.90
7461;DHT22;6757;52.258;12.840;2023-04-25T05:29:12;7.60;99.90
7461;DHT22;6757;52.258;12.840;2023-04-25T05:31:39;7.60;99.90
7461;DHT22;6757;52.258;12.840;2023-04-25T05:34:06;7.70;99.90
7461;DHT22;6757;52.258;12.840;2023-04-25T05:36:33;7.70;99.90
7461;DHT22;6757;52.258;12.840;2023-04-25T05:39:00;7.70;99.90
7461;DHT22;6757;52.258;12.840;2023-04-25T05:41:29;7.70;99.90
7461;DHT22;6757;52.258;12.840;2023-04-25T05:43:56;7.70;99.90
7461;DHT22;6757;52.258;12.840;2023-04-25T05:46:23;7.60;99.90
7461;DHT22;6757;52.258;12.840;2023-04-25T05:48:50;7.60;99.90
7461;DHT22;6757;52.258;12.840;2023-04-25T05:51:17;7.60;99.90
7461;DHT22;6757;52.258;12.840;2023-04-25T05:53:44;7.70;99.90
7461;DHT22;6757;52.258;12.840;2023-04-25T05:56:11;7.70;99.90
7461;DHT22;6757;52.258;12.840;2023-04-25T05:58:40;7.80;99.90
7461;DHT22;6757;52.258;12.840;2023-04-25T06:01:07;7.80;99.90
7461;DHT22;6757;52.258;12.840;2023-04-25T06:03:34;7.90;99.90
7461;DHT22;6757;52.258;12.840;2023-04-25T06:06:03;7.90;99.90
7461;DHT22;6757;52.258;12.840;2023-04-25T06:08:31;8.00;99.90
7461;DHT22;6757;52.258;12.840;2023-04-25T06:10:58;8.10;99.90
7461;DHT22;6757;52.258;12.840;2023-04-25T06:13:25;8.20;99.90
7461;DHT22;6757;52.258;12.840;2023-04-25T06:15:54;8.30;99.90
7461;DHT22;6757;52.258;12.840;2023-04-25T06:18:21;8.30;99.90
7461;DHT22;6757;52.258;12.840;2023-04-25T06:20:47;8.40;99.90
7461;DHT22;6757;52.258;12.840;2023-04-25T06:23:14;8.50;99.90
7461;DHT22;6757;52.258;12.840;2023-04-25T06:25:41;8.50;99.90
7461;DHT22;6757;52.258;12.840;2023-04-25T06:28:08;8.50;99.90
7461;DHT22;6757;52.258;12.840;2023-04-25T06:30:35;8.50;99.90
7461;DHT22;6757;52.258;12.840;2023-04-25T06:33:03;8.50;99.90
7461;DHT22;6757;52.258;12.840;2023-04-25T06:35:30;8.40;99.90
7461;DHT22;6757;52.258;12.840;2023-04-25T06:37:57;8.40;99.90
7461;DHT22;6757;52.258;12.840;2023-04-25T06:40:25;8.30;99.90
7461;DHT22;6757;52.258;12.840;2023-04-25T06:42:52;8.30;99.90
7461;DHT22;6757;52.258;12.840;2023-04-25T06:45:19;8.20;99.90
7461;DHT22;6757;52.258;12.840;2023-04-25T06:47:46;8.20;99.90
7461;DHT22;6757;52.258;12.840;2023-04-25T06:50:14;8.20;99.90
7461;DHT22;6757;52.258;12.840;2023-04-25T06:52:41;8.20;99.90
7461;DHT22;6757;52.258;12.840;2023-04-25T06:55:09;8.10;99.90
7461;DHT22;6757;52.258;12.840;2023-04-25T06:57:36;8.10;99.90
7461;DHT22;6757;52.258;12.840;2023-04-25T07:00:04;8.00;99.90
7461;DHT22;6757;52.258;12.840;2023-04-25T07:02:34;8.00;99.90
7461;DHT22;6757;52.258;12.840;2023-04-25T07:05:01;8.00;99.90
7461;DHT22;6757;52.258;12.840;2023-04-25T07:07:30;8.00;99.90
7461;DHT22;6757;52.258;12.840;2023-04-25T07:09:57;8.00;99.90
7461;DHT22;6757;52.258;12.840;2023-04-25T07:12:25;8.00;99.90
7461;DHT22;6757;52.258;12.840;2023-04-25T07:14:51;8.00;99.90
7461;DHT22;6757;52.258;12.840;2023-04-25T07:17:18;7.90;99.90
7461;DHT22;6757;52.258;12.840;2023-04-25T07:19:45;8.00;99.90
7461;DHT22;6757;52.258;12.840;2023-04-25T07:22:12;8.00;99.90
7461;DHT22;6757;52.258;12.840;2023-04-25T07:24:40;8.00;99.90
7461;DHT22;6757;52.258;12.840;2023-04-25T07:27:07;7.90;99.90
7461;DHT22;6757;52.258;12.840;2023-04-25T07:29:34;7.80;99.90
7461;DHT22;6757;52.258;12.840;2023-04-25T07:32:02;7.70;99.90
7461;DHT22;6757;52.258;12.840;2023-04-25T07:34:30;7.60;99.90
7461;DHT22;6757;52.258;12.840;2023-04-25T07:36:57;7.60;99.90
7461;DHT22;6757;52.258;12.840;2023-04-25T07:39:25;7.50;99.90
7461;DHT22;6757;52.258;12.840;2023-04-25T07:41:54;7.40;99.90
7461;DHT22;6757;52.258;12.840;2023-04-25T07:44:21;7.30;99.90
7461;DHT22;6757;52.258;12.840;2023-04-25T07:46:48;7.30;99.90
7461;DHT22;6757;52.258;12.840;2023-04-25T07:49:15;7.30;99.90
7461;DHT22;6757;52.258;12.840;2023-04-25T07:51:42;7.20;99.90
7461;DHT22;6757;52.258;12.840;2023-04-25T07:54:10;7.20;99.90
7461;DHT22;6757;52.258;12.840;2023-04-25T07:56:38;7.20;99.90
7461;DHT22;6757;52.258;12.840;2023-04-25T07:59:07;7.20;99.90
7461;DHT22;6757;52.258;12.840;2023-04-25T08:01:34;7.30;99.90
7461;DHT22;6757;52.258;12.840;2023-04-25T08:04:01;7.30;99.90
7461;DHT22;6757;52.258;12.840;2023-04-25T08:06:28;7.40;99.90
7461;DHT22;6757;52.258;12.840;2023-04-25T08:08:55;7.50;99.90
7461;DHT22;6757;52.258;12.840;2023-04-25T08:11:22;7.60;99.90
7461;DHT22;6757;52.258;12.840;2023-04-25T08:13:49;7.60;99.90
7461;DHT22;6757;52.258;12.840;2023-04-25T08:16:17;7.70;99.90
7461;DHT22;6757;52.258;12.840;2023-04-25T08:18:44;7.80;99.90
7461;DHT22;6757;52.258;12.840;2023-04-25T08:21:11;7.80;99.90
7461;DHT22;6757;52.258;12.840;2023-04-25T08:23:38;7.90;99.90
7461;DHT22;6757;52.258;12.840;2023-04-25T08:26:05;7.90;99.90
7461;DHT22;6757;52.258;12.840;2023-04-25T08:28:32;8.00;99.90
7461;DHT22;6757;52.258;12.840;2023-04-25T08:30:59;8.10;99.90
7461;DHT22;6757;52.258;12.840;2023-04-25T08:33:28;8.20;99.90
7461;DHT22;6757;52.258;12.840;2023-04-25T08:35:55;8.30;99.90
7461;DHT22;6757;52.258;12.840;2023-04-25T08:38:22;8.40;99.90
7461;DHT22;6757;52.258;12.840;2023-04-25T08:40:50;8.60;99.90
7461;DHT22;6757;52.258;12.840;2023-04-25T08:43:18;8.80;99.90
7461;DHT22;6757;52.258;12.840;2023-04-25T08:45:46;9.00;99.90
7461;DHT22;6757;52.258;12.840;2023-04-25T08:48:15;9.20;99.90
7461;DHT22;6757;52.258;12.840;2023-04-25T08:50:48;9.40;99.90
7461;DHT22;6757;52.258;12.840;2023-04-25T08:53:19;9.50;99.90
7461;DHT22;6757;52.258;12.840;2023-04-25T08:55:48;9.60;99.90
7461;DHT22;6757;52.258;12.840;2023-04-25T08:58:18;9.60;99.90
7461;DHT22;6757;52.258;12.840;2023-04-25T09:00:46;9.60;99.90
7461;DHT22;6757;52.258;12.840;2023-04-25T09:03:13;9.60;99.90
7461;DHT22;6757;52.258;12.840;2023-04-25T09:05:40;9.60;99.90
7461;DHT22;6757;52.258;12.840;2023-04-25T09:08:09;9.60;99.90
7461;DHT22;6757;52.258;12.840;2023-04-25T09:10:37;9.60;99.90
7461;DHT22;6757;52.258;12.840;2023-04-25T09:13:05;9.60;99.90
7461;DHT22;6757;52.258;12.840;2023-04-25T09:15:47;9.70;99.90
7461;DHT22;6757;52.258;12.840;2023-04-25T09:18:22;9.70;99.90
7461;DHT22;6757;52.258;12.840;2023-04-25T09:20:52;9.80;99.90
7461;DHT22;6757;52.258;12.840;2023-04-25T09:23:21;9.80;99.90
7461;DHT22;6757;52.258;12.840;2023-04-25T09:25:49;9.80;99.90
7461;DHT22;6757;52.258;12.840;2023-04-25T09:28:23;9.80;99.90
7461;DHT22;6757;52.258;12.840;2023-04-25T09:30:55;9.70;99.90
7461;DHT22;6757;52.258;12.840;2023-04-25T09:33:27;10.20;99.90
7461;DHT22;6757;52.258;12.840;2023-04-25T09:36:02;9.80;99.90
7461;DHT22;6757;52.258;12.840;2023-04-25T09:38:32;9.80;99.90
7461;DHT22;6757;52.258;12.840;2023-04-25T09:41:01;9.90;99.90
7461;DHT22;6757;52.258;12.840;2023-04-25T09:43:28;10.00;99.90
7461;DHT22;6757;52.258;12.840;2023-04-25T09:45:55;10.10;99.90
7461;DHT22;6757;52.258;12.840;2023-04-25T09:48:26;10.20;99.90
7461;DHT22;6757;52.258;12.840;2023-04-25T09:51:07;10.20;99.90
7461;DHT22;6757;52.258;12.840;2023-04-25T09:53:38;10.20;99.90
7461;DHT22;6757;52.258;12.840;2023-04-25T09:56:07;10.20;99.90
7461;DHT22;6757;52.258;12.840;2023-04-25T09:58:36;10.10;99.90
7461;DHT22;6757;52.258;12.840;2023-04-25T10:01:04;10.00;99.90
7461;DHT22;6757;52.258;12.840;2023-04-25T10:03:34;9.90;99.90
7461;DHT22;6757;52.258;12.840;2023-04-25T10:06:04;9.90;99.90
7461;DHT22;6757;52.258;12.840;2023-04-25T10:08:37;9.90;99.90
7461;DHT22;6757;52.258;12.840;2023-04-25T10:11:05;9.90;99.90
7461;DHT22;6757;52.258;12.840;2023-04-25T10:13:34;10.00;99.90
7461;DHT22;6757;52.258;12.840;2023-04-25T10:16:04;10.10;99.90
7461;DHT22;6757;52.258;12.840;2023-04-25T10:18:32;10.10;99.90
7461;DHT22;6757;52.258;12.840;2023-04-25T10:21:01;10.20;99.90
7461;DHT22;6757;52.258;12.840;2023-04-25T10:23:31;10.20;99.90
7461;DHT22;6757;52.258;12.840;2023-04-25T10:26:01;10.20;99.90
7461;DHT22;6757;52.258;12.840;2023-04-25T10:28:28;10.00;99.90
7461;DHT22;6757;52.258;12.840;2023-04-25T10:30:59;9.90;99.90
7461;DHT22;6757;52.258;12.840;2023-04-25T10:33:36;9.90;99.90
7461;DHT22;6757;52.258;12.840;2023-04-25T10:36:09;9.90;99.90
7461;DHT22;6757;52.258;12.840;2023-04-25T10:38:37;9.90;99.90
7461;DHT22;6757;52.258;12.840;2023-04-25T10:41:07;9.90;99.90
7461;DHT22;6757;52.258;12.840;2023-04-25T10:43:37;9.90;99.90
7461;DHT22;6757;52.258;12.840;2023-04-25T10:46:15;9.90;99.90
7461;DHT22;6757;52.258;12.840;2023-04-25T10:48:47;9.90;99.90
7461;DHT22;6757;52.258;12.840;2023-04-25T10:51:20;9.90;99.90
7461;DHT22;6757;52.258;12.840;2023-04-25T10:53:57;9.80;99.90
7461;DHT22;6757;52.258;12.840;2023-04-25T10:56:28;9.80;99.90
7461;DHT22;6757;52.258;12.840;2023-04-25T10:59:06;9.80;99.90
7461;DHT22;6757;52.258;12.840;2023-04-25T11:01:37;9.80;99.90
7461;DHT22;6757;52.258;12.840;2023-04-25T11:04:05;9.80;99.90
7461;DHT22;6757;52.258;12.840;2023-04-25T11:06:43;9.90;99.90
7461;DHT22;6757;52.258;12.840;2023-04-25T11:09:13;10.00;99.90
7461;DHT22;6757;52.258;12.840;2023-04-25T11:11:42;10.10;99.90
7461;DHT22;6757;52.258;12.840;2023-04-25T11:14:09;10.10;99.90
7461;DHT22;6757;52.258;12.840;2023-04-25T11:16:36;10.10;99.90
7461;DHT22;6757;52.258;12.840;2023-04-25T11:19:03;10.00;99.90
7461;DHT22;6757;52.258;12.840;2023-04-25T11:21:31;9.90;99.90
7461;DHT22;6757;52.258;12.840;2023-04-25T11:23:58;9.80;99.90
7461;DHT22;6757;52.258;12.840;2023-04-25T11:26:25;9.80;99.60
7461;DHT22;6757;52.258;12.840;2023-04-25T11:28:57;9.70;99.50
7461;DHT22;6757;52.258;12.840;2023-04-25T11:31:25;9.70;99.40
7461;DHT22;6757;52.258;12.840;2023-04-25T11:33:53;9.80;99.20
7461;DHT22;6757;52.258;12.840;2023-04-25T11:36:20;9.80;99.20
7461;DHT22;6757;52.258;12.840;2023-04-25T11:38:50;10.50;99.40
7461;DHT22;6757;52.258;12.840;2023-04-25T11:41:17;10.00;99.40
7461;DHT22;6757;52.258;12.840;2023-04-25T11:43:44;10.10;98.90
7461;DHT22;6757;52.258;12.840;2023-04-25T11:46:12;10.20;98.60
7461;DHT22;6757;52.258;12.840;2023-04-25T11:48:39;10.20;98.50
7461;DHT22;6757;52.258;12.840;2023-04-25T11:51:07;10.30;98.20
7461;DHT22;6757;52.258;12.840;2023-04-25T11:53:34;10.40;97.00
7461;DHT22;6757;52.258;12.840;2023-04-25T11:56:01;10.30;96.60
7461;DHT22;6757;52.258;12.840;2023-04-25T11:58:53;10.50;96.30
7461;DHT22;6757;52.258;12.840;2023-04-25T12:01:27;10.60;95.70
7461;DHT22;6757;52.258;12.840;2023-04-25T12:03:55;10.60;95.50
7461;DHT22;6757;52.258;12.840;2023-04-25T12:06:26;10.60;95.00
7461;DHT22;6757;52.258;12.840;2023-04-25T12:09:01;10.60;94.60
7461;DHT22;6757;52.258;12.840;2023-04-25T12:11:30;10.70;94.20
7461;DHT22;6757;52.258;12.840;2023-04-25T12:14:02;10.70;93.90
7461;DHT22;6757;52.258;12.840;2023-04-25T12:16:40;10.80;94.20
7461;DHT22;6757;52.258;12.840;2023-04-25T12:19:08;10.80;94.30
7461;DHT22;6757;52.258;12.840;2023-04-25T12:21:35;10.80;94.20
7461;DHT22;6757;52.258;12.840;2023-04-25T12:24:12;10.80;94.40
7461;DHT22;6757;52.258;12.840;2023-04-25T12:26:49;10.80;94.70
7461;DHT22;6757;52.258;12.840;2023-04-25T12:29:21;10.80;94.90
7461;DHT22;6757;52.258;12.840;2023-04-25T12:31:52;10.70;94.90
7461;DHT22;6757;52.258;12.840;2023-04-25T12:34:20;10.70;94.30
7461;DHT22;6757;52.258;12.840;2023-04-25T12:36:48;10.60;94.20
7461;DHT22;6757;52.258;12.840;2023-04-25T12:39:15;10.50;94.20
7461;DHT22;6757;52.258;12.840;2023-04-25T12:41:43;10.30;94.10
7461;DHT22;6757;52.258;12.840;2023-04-25T12:44:11;10.30;94.30
7461;DHT22;6757;52.258;12.840;2023-04-25T12:46:38;10.80;94.70
7461;DHT22;6757;52.258;12.840;2023-04-25T12:49:07;10.10;94.80
7461;DHT22;6757;52.258;12.840;2023-04-25T12:51:35;10.00;95.10
7461;DHT22;6757;52.258;12.840;2023-04-25T12:54:03;9.90;95.80
7461;DHT22;6757;52.258;12.840;2023-04-25T12:56:31;9.90;96.00
7461;DHT22;6757;52.258;12.840;2023-04-25T12:58:58;10.70;96.20
7461;DHT22;6757;52.258;12.840;2023-04-25T13:01:26;9.80;96.40
7461;DHT22;6757;52.258;12.840;2023-04-25T13:03:53;9.80;96.60
7461;DHT22;6757;52.258;12.840;2023-04-25T13:06:22;9.90;96.70
7461;DHT22;6757;52.258;12.840;2023-04-25T13:08:49;9.90;96.90
7461;DHT22;6757;52.258;12.840;2023-04-25T13:11:16;10.00;96.60
7461;DHT22;6757;52.258;12.840;2023-04-25T13:13:43;10.10;96.70
7461;DHT22;6757;52.258;12.840;2023-04-25T13:16:11;10.10;96.20
7461;DHT22;6757;52.258;12.840;2023-04-25T13:18:39;10.10;95.80
7461;DHT22;6757;52.258;12.840;2023-04-25T13:21:06;10.00;95.80
7461;DHT22;6757;52.258;12.840;2023-04-25T13:23:37;9.90;96.30
7461;DHT22;6757;52.258;12.840;2023-04-25T13:26:04;9.90;96.30
7461;DHT22;6757;52.258;12.840;2023-04-25T13:28:31;9.80;96.30
7461;DHT22;6757;52.258;12.840;2023-04-25T13:30:58;9.80;96.20
7461;DHT22;6757;52.258;12.840;2023-04-25T13:33:25;9.80;96.20
7461;DHT22;6757;52.258;12.840;2023-04-25T13:35:52;9.90;96.10
7461;DHT22;6757;52.258;12.840;2023-04-25T13:38:22;10.00;95.70
7461;DHT22;6757;52.258;12.840;2023-04-25T13:40:51;10.10;95.70
7461;DHT22;6757;52.258;12.840;2023-04-25T13:43:19;10.40;95.30
7461;DHT22;6757;52.258;12.840;2023-04-25T13:45:47;10.60;94.60
7461;DHT22;6757;52.258;12.840;2023-04-25T13:48:14;10.80;93.90
7461;DHT22;6757;52.258;12.840;2023-04-25T13:50:41;11.00;93.40
7461;DHT22;6757;52.258;12.840;2023-04-25T13:53:08;11.10;93.10
7461;DHT22;6757;52.258;12.840;2023-04-25T13:55:35;11.10;92.90
7461;DHT22;6757;52.258;12.840;2023-04-25T13:58:04;11.00;92.60
7461;DHT22;6757;52.258;12.840;2023-04-25T14:00:34;11.50;92.90
7461;DHT22;6757;52.258;12.840;2023-04-25T14:03:03;10.70;92.80
7461;DHT22;6757;52.258;12.840;2023-04-25T14:05:33;10.60;92.90
7461;DHT22;6757;52.258;12.840;2023-04-25T14:08:04;10.50;92.90
7461;DHT22;6757;52.258;12.840;2023-04-25T14:10:32;10.50;93.00
7461;DHT22;6757;52.258;12.840;2023-04-25T14:13:00;10.50;93.20
7461;DHT22;6757;52.258;12.840;2023-04-25T14:15:30;10.80;93.50
7461;DHT22;6757;52.258;12.840;2023-04-25T14:17:57;11.30;93.00
7461;DHT22;6757;52.258;12.840;2023-04-25T14:20:25;12.10;91.80
7461;DHT22;6757;52.258;12.840;2023-04-25T14:22:52;12.80;90.80
7461;DHT22;6757;52.258;12.840;2023-04-25T14:25:20;13.70;89.70
7461;DHT22;6757;52.258;12.840;2023-04-25T14:27:47;14.30;87.20
7461;DHT22;6757;52.258;12.840;2023-04-25T14:30:15;14.70;83.00
7461;DHT22;6757;52.258;12.840;2023-04-25T14:32:44;15.00;81.80
7461;DHT22;6757;52.258;12.840;2023-04-25T14:35:11;15.10;80.40
7461;DHT22;6757;52.258;12.840;2023-04-25T14:37:38;14.90;79.20
7461;DHT22;6757;52.258;12.840;2023-04-25T14:40:06;14.60;78.70
7461;DHT22;6757;52.258;12.840;2023-04-25T14:42:36;14.10;79.20
7461;DHT22;6757;52.258;12.840;2023-04-25T14:45:03;13.80;79.80
7461;DHT22;6757;52.258;12.840;2023-04-25T14:47:31;13.20;80.00
7461;DHT22;6757;52.258;12.840;2023-04-25T14:50:00;12.70;80.60
7461;DHT22;6757;52.258;12.840;2023-04-25T14:52:27;12.30;81.60
7461;DHT22;6757;52.258;12.840;2023-04-25T14:54:54;12.00;82.80
7461;DHT22;6757;52.258;12.840;2023-04-25T14:57:21;11.60;83.60
7461;DHT22;6757;52.258;12.840;2023-04-25T14:59:48;11.30;84.40
7461;DHT22;6757;52.258;12.840;2023-04-25T15:02:15;11.20;85.80
7461;DHT22;6757;52.258;12.840;2023-04-25T15:04:41;11.00;85.90
7461;DHT22;6757;52.258;12.840;2023-04-25T15:07:10;10.90;86.70
7461;DHT22;6757;52.258;12.840;2023-04-25T15:09:37;10.80;87.40
7461;DHT22;6757;52.258;12.840;2023-04-25T15:12:04;10.70;88.00
7461;DHT22;6757;52.258;12.840;2023-04-25T15:14:31;10.50;88.00
7461;DHT22;6757;52.258;12.840;2023-04-25T15:16:59;10.40;88.40
7461;DHT22;6757;52.258;12.840;2023-04-25T15:19:26;10.30;89.00
7461;DHT22;6757;52.258;12.840;2023-04-25T15:21:53;10.20;89.50
7461;DHT22;6757;52.258;12.840;2023-04-25T15:24:22;10.10;90.00
7461;DHT22;6757;52.258;12.840;2023-04-25T15:26:49;10.00;90.20
7461;DHT22;6757;52.258;12.840;2023-04-25T15:29:16;9.90;90.90
7461;DHT22;6757;52.258;12.840;2023-04-25T15:31:42;9.80;91.30
7461;DHT22;6757;52.258;12.840;2023-04-25T15:34:09;9.70;91.50
7461;DHT22;6757;52.258;12.840;2023-04-25T15:36:36;9.60;91.90
7461;DHT22;6757;52.258;12.840;2023-04-25T15:39:03;9.60;92.20
7461;DHT22;6757;52.258;12.840;2023-04-25T15:41:32;9.50;92.40
7461;DHT22;6757;52.258;12.840;2023-04-25T15:43:59;9.50;93.00
7461;DHT22;6757;52.258;12.840;2023-04-25T15:46:27;9.50;93.30
7461;DHT22;6757;52.258;12.840;2023-04-25T15:48:55;9.50;93.50
7461;DHT22;6757;52.258;12.840;2023-04-25T15:51:22;9.50;93.60
7461;DHT22;6757;52.258;12.840;2023-04-25T15:53:49;9.70;93.70
7461;DHT22;6757;52.258;12.840;2023-04-25T15:56:16;10.00;93.40
7461;DHT22;6757;52.258;12.840;2023-04-25T15:58:44;10.40;93.20
7461;DHT22;6757;52.258;12.840;2023-04-25T16:01:11;10.80;92.80
7461;DHT22;6757;52.258;12.840;2023-04-25T16:03:38;11.30;92.30